sensor_id;sensor_type;location;lat;lon;timestamp;P1;durP1;ratioP1;P2;durP2;ratioP2
54823;SDS011;40724;53.196;5.980;2023-04-06T00:01:10;8.95;;;5.40;;
54823;SDS011;40724;53.196;5.980;2023-04-06T00:03:36;8.38;;;5.28;;
54823;SDS011;40724;53.196;5.980;2023-04-06T00:06:02;11.68;;;5.72;;
54823;SDS011;40724;53.196;5.980;2023-04-06T00:08:29;9.40;;;5.65;;
54823;SDS011;40724;53.196;5.980;2023-04-06T00:10:55;7.45;;;5.15;;
54823;SDS011;40724;53.196;5.980;2023-04-06T00:13:21;7.70;;;5.35;;
54823;SDS011;40724;53.196;5.980;2023-04-06T00:15:47;7.65;;;5.20;;
54823;SDS011;40724;53.196;5.980;2023-04-06T00:18:13;6.43;;;4.30;;
54823;SDS011;40724;53.196;5.980;2023-04-06T00:20:40;7.18;;;5.38;;
54823;SDS011;40724;53.196;5.980;2023-04-06T00:23:06;7.70;;;5.15;;
54823;SDS011;40724;53.196;5.980;2023-04-06T00:25:32;7.20;;;4.75;;
54823;SDS011;40724;53.196;5.980;2023-04-06T00:27:58;7.28;;;5.22;;
54823;SDS011;40724;53.196;5.980;2023-04-06T00:30:24;7.72;;;4.68;;
54823;SDS011;40724;53.196;5.980;2023-04-06T00:32:50;8.38;;;4.88;;
54823;SDS011;40724;53.196;5.980;2023-04-06T00:35:17;7.75;;;5.15;;
54823;SDS011;40724;53.196;5.980;2023-04-06T00:37:43;9.48;;;5.55;;
54823;SDS011;40724;53.196;5.980;2023-04-06T00:40:09;7.07;;;4.97;;
54823;SDS011;40724;53.196;5.980;2023-04-06T00:42:35;7.82;;;5.20;;
54823;SDS011;40724;53.196;5.980;2023-04-06T00:45:02;8.10;;;5.70;;
54823;SDS011;40724;53.196;5.980;2023-04-06T00:47:28;7.95;;;5.97;;
54823;SDS011;40724;53.196;5.980;2023-04-06T00:49:54;7.50;;;4.95;;
54823;SDS011;40724;53.196;5.980;2023-04-06T00:52:21;7.60;;;5.10;;
54823;SDS011;40724;53.196;5.980;2023-04-06T00:54:47;6.78;;;4.85;;
54823;SDS011;40724;53.196;5.980;2023-04-06T00:57:13;5.68;;;4.53;;
54823;SDS011;40724;53.196;5.980;2023-04-06T00:59:39;6.38;;;4.97;;
54823;SDS011;40724;53.196;5.980;2023-04-06T01:02:06;5.63;;;4.53;;
54823;SDS011;40724;53.196;5.980;2023-04-06T01:04:32;7.57;;;5.45;;
54823;SDS011;40724;53.196;5.980;2023-04-06T01:06:58;10.13;;;5.45;;
54823;SDS011;40724;53.196;5.980;2023-04-06T01:09:26;7.20;;;5.30;;
54823;SDS011;40724;53.196;5.980;2023-04-06T01:11:53;8.68;;;5.10;;
54823;SDS011;40724;53.196;5.980;2023-04-06T01:14:20;8.95;;;5.68;;
54823;SDS011;40724;53.196;5.980;2023-04-06T01:16:46;7.43;;;4.70;;
54823;SDS011;40724;53.196;5.980;2023-04-06T01:19:13;7.82;;;5.00;;
54823;SDS011;40724;53.196;5.980;2023-04-06T01:21:39;6.15;;;5.07;;
54823;SDS011;40724;53.196;5.980;2023-04-06T01:24:06;6.32;;;4.57;;
54823;SDS011;40724;53.196;5.980;2023-04-06T01:26:33;9.82;;;5.72;;
54823;SDS011;40724;53.196;5.980;2023-04-06T01:28:59;8.30;;;5.00;;
54823;SDS011;40724;53.196;5.980;2023-04-06T01:31:26;7.03;;;5.38;;
54823;SDS011;40724;53.196;5.980;2023-04-06T01:33:52;8.40;;;5.43;;
54823;SDS011;40724;53.196;5.980;2023-04-06T01:36:19;8.23;;;5.25;;
54823;SDS011;40724;53.196;5.980;2023-04-06T01:38:45;8.25;;;5.35;;
54823;SDS011;40724;53.196;5.980;2023-04-06T01:41:11;7.80;;;4.93;;
54823;SDS011;40724;53.196;5.980;2023-04-06T01:43:37;8.98;;;5.03;;
54823;SDS011;40724;53.196;5.980;2023-04-06T01:46:04;10.10;;;5.97;;
54823;SDS011;40724;53.196;5.980;2023-04-06T01:48:31;7.57;;;4.63;;
54823;SDS011;40724;53.196;5.980;2023-04-06T01:50:57;8.73;;;5.65;;
54823;SDS011;40724;53.196;5.980;2023-04-06T01:53:23;9.50;;;5.22;;
54823;SDS011;40724;53.196;5.980;2023-04-06T01:55:49;8.05;;;4.45;;
54823;SDS011;40724;53.196;5.980;2023-04-06T01:58:15;6.15;;;4.90;;
54823;SDS011;40724;53.196;5.980;2023-04-06T02:00:41;6.75;;;5.38;;
54823;SDS011;40724;53.196;5.980;2023-04-06T02:03:07;8.80;;;5.65;;
54823;SDS011;40724;53.196;5.980;2023-04-06T02:05:34;9.23;;;5.30;;
54823;SDS011;40724;53.196;5.980;2023-04-06T02:08:06;6.53;;;5.15;;
54823;SDS011;40724;53.196;5.980;2023-04-06T02:10:32;7.95;;;4.68;;
54823;SDS011;40724;53.196;5.980;2023-04-06T02:12:59;9.45;;;5.68;;
54823;SDS011;40724;53.196;5.980;2023-04-06T02:15:25;11.18;;;5.30;;
54823;SDS011;40724;53.196;5.980;2023-04-06T02:17:51;8.90;;;4.93;;
54823;SDS011;40724;53.196;5.980;2023-04-06T02:20:18;9.00;;;5.43;;
54823;SDS011;40724;53.196;5.980;2023-04-06T02:22:44;6.72;;;4.88;;
54823;SDS011;40724;53.196;5.980;2023-04-06T02:25:10;6.97;;;4.88;;
54823;SDS011;40724;53.196;5.980;2023-04-06T02:27:37;8.07;;;5.13;;
54823;SDS011;40724;53.196;5.980;2023-04-06T02:30:03;8.25;;;5.63;;
54823;SDS011;40724;53.196;5.980;2023-04-06T02:32:29;7.50;;;4.68;;
54823;SDS011;40724;53.196;5.980;2023-04-06T02:34:55;8.82;;;5.68;;
54823;SDS011;40724;53.196;5.980;2023-04-06T02:37:22;9.27;;;5.68;;
54823;SDS011;40724;53.196;5.980;2023-04-06T02:39:51;7.57;;;4.93;;
54823;SDS011;40724;53.196;5.980;2023-04-06T02:42:17;6.82;;;5.55;;
54823;SDS011;40724;53.196;5.980;2023-04-06T02:44:43;8.98;;;4.97;;
54823;SDS011;40724;53.196;5.980;2023-04-06T02:47:09;6.65;;;5.18;;
54823;SDS011;40724;53.196;5.980;2023-04-06T02:49:36;8.13;;;5.35;;
54823;SDS011;40724;53.196;5.980;2023-04-06T02:52:02;8.07;;;5.38;;
54823;SDS011;40724;53.196;5.980;2023-04-06T02:54:28;8.23;;;6.22;;
54823;SDS011;40724;53.196;5.980;2023-04-06T02:56:54;9.25;;;4.95;;
54823;SDS011;40724;53.196;5.980;2023-04-06T02:59:20;5.70;;;4.55;;
54823;SDS011;40724;53.196;5.980;2023-04-06T03:01:47;6.97;;;5.13;;
54823;SDS011;40724;53.196;5.980;2023-04-06T03:04:13;9.75;;;5.22;;
54823;SDS011;40724;53.196;5.980;2023-04-06T03:06:39;10.07;;;5.32;;
54823;SDS011;40724;53.196;5.980;2023-04-06T03:09:06;9.85;;;6.13;;
54823;SDS011;40724;53.196;5.980;2023-04-06T03:11:32;8.75;;;5.13;;
54823;SDS011;40724;53.196;5.980;2023-04-06T03:13:58;7.13;;;5.13;;
54823;SDS011;40724;53.196;5.980;2023-04-06T03:16:24;10.15;;;5.55;;
54823;SDS011;40724;53.196;5.980;2023-04-06T03:18:51;9.10;;;5.13;;
54823;SDS011;40724;53.196;5.980;2023-04-06T03:21:17;7.35;;;5.57;;
54823;SDS011;40724;53.196;5.980;2023-04-06T03:23:44;8.82;;;6.38;;
54823;SDS011;40724;53.196;5.980;2023-04-06T03:26:10;9.85;;;5.80;;
54823;SDS011;40724;53.196;5.980;2023-04-06T03:28:36;5.90;;;5.07;;
54823;SDS011;40724;53.196;5.980;2023-04-06T03:31:03;7.72;;;5.45;;
54823;SDS011;40724;53.196;5.980;2023-04-06T03:33:29;8.52;;;5.13;;
54823;SDS011;40724;53.196;5.980;2023-04-06T03:35:55;7.60;;;5.80;;
54823;SDS011;40724;53.196;5.980;2023-04-06T03:38:21;9.07;;;5.10;;
54823;SDS011;40724;53.196;5.980;2023-04-06T03:40:47;7.43;;;5.25;;
54823;SDS011;40724;53.196;5.980;2023-04-06T03:43:14;8.40;;;5.70;;
54823;SDS011;40724;53.196;5.980;2023-04-06T03:45:40;7.53;;;5.55;;
54823;SDS011;40724;53.196;5.980;2023-04-06T03:48:06;9.15;;;5.30;;
54823;SDS011;40724;53.196;5.980;2023-04-06T03:50:32;7.47;;;6.13;;
54823;SDS011;40724;53.196;5.980;2023-04-06T03:52:58;6.65;;;4.88;;
54823;SDS011;40724;53.196;5.980;2023-04-06T03:55:28;10.52;;;5.82;;
54823;SDS011;40724;53.196;5.980;2023-04-06T03:57:54;10.40;;;6.18;;
54823;SDS011;40724;53.196;5.980;2023-04-06T04:00:21;9.13;;;6.43;;
54823;SDS011;40724;53.196;5.980;2023-04-06T04:02:47;7.88;;;5.50;;
54823;SDS011;40724;53.196;5.980;2023-04-06T04:05:13;7.65;;;5.43;;
54823;SDS011;40724;53.196;5.980;2023-04-06T04:07:39;10.88;;;6.57;;
54823;SDS011;40724;53.196;5.980;2023-04-06T04:10:05;7.78;;;5.43;;
54823;SDS011;40724;53.196;5.980;2023-04-06T04:12:32;8.15;;;6.35;;
54823;SDS011;40724;53.196;5.980;2023-04-06T04:14:58;16.08;;;6.65;;
54823;SDS011;40724;53.196;5.980;2023-04-06T04:17:24;7.13;;;5.97;;
54823;SDS011;40724;53.196;5.980;2023-04-06T04:19:50;7.05;;;5.30;;
54823;SDS011;40724;53.196;5.980;2023-04-06T04:22:16;8.45;;;6.00;;
54823;SDS011;40724;53.196;5.980;2023-04-06T04:24:42;10.85;;;6.50;;
54823;SDS011;40724;53.196;5.980;2023-04-06T04:27:09;9.90;;;6.30;;
54823;SDS011;40724;53.196;5.980;2023-04-06T04:29:35;8.70;;;6.10;;
54823;SDS011;40724;53.196;5.980;2023-04-06T04:32:01;8.77;;;5.75;;
54823;SDS011;40724;53.196;5.980;2023-04-06T04:34:28;8.35;;;5.70;;
54823;SDS011;40724;53.196;5.980;2023-04-06T04:36:54;8.88;;;6.43;;
54823;SDS011;40724;53.196;5.980;2023-04-06T04:39:20;11.60;;;7.75;;
54823;SDS011;40724;53.196;5.980;2023-04-06T04:41:46;9.15;;;6.50;;
54823;SDS011;40724;53.196;5.980;2023-04-06T04:44:12;7.60;;;5.47;;
54823;SDS011;40724;53.196;5.980;2023-04-06T04:46:40;9.38;;;6.80;;
54823;SDS011;40724;53.196;5.980;2023-04-06T04:49:06;8.88;;;6.50;;
54823;SDS011;40724;53.196;5.980;2023-04-06T04:51:32;12.45;;;6.85;;
54823;SDS011;40724;53.196;5.980;2023-04-06T04:53:58;16.02;;;6.53;;
54823;SDS011;40724;53.196;5.980;2023-04-06T04:56:25;10.40;;;6.05;;
54823;SDS011;40724;53.196;5.980;2023-04-06T04:58:52;10.40;;;6.68;;
54823;SDS011;40724;53.196;5.980;2023-04-06T05:01:18;9.82;;;6.43;;
54823;SDS011;40724;53.196;5.980;2023-04-06T05:03:45;7.85;;;6.05;;
54823;SDS011;40724;53.196;5.980;2023-04-06T05:06:11;9.13;;;6.50;;
54823;SDS011;40724;53.196;5.980;2023-04-06T05:08:40;9.15;;;5.88;;
54823;SDS011;40724;53.196;5.980;2023-04-06T05:11:06;14.10;;;6.65;;
54823;SDS011;40724;53.196;5.980;2023-04-06T05:13:32;10.18;;;6.50;;
54823;SDS011;40724;53.196;5.980;2023-04-06T05:15:59;9.27;;;6.55;;
54823;SDS011;40724;53.196;5.980;2023-04-06T05:18:25;10.65;;;6.88;;
54823;SDS011;40724;53.196;5.980;2023-04-06T05:20:51;12.60;;;7.20;;
54823;SDS011;40724;53.196;5.980;2023-04-06T05:23:17;8.35;;;6.97;;
54823;SDS011;40724;53.196;5.980;2023-04-06T05:25:43;9.20;;;6.88;;
54823;SDS011;40724;53.196;5.980;2023-04-06T05:28:10;12.93;;;7.55;;
54823;SDS011;40724;53.196;5.980;2023-04-06T05:30:39;10.02;;;7.30;;
54823;SDS011;40724;53.196;5.980;2023-04-06T05:33:05;7.03;;;5.90;;
54823;SDS011;40724;53.196;5.980;2023-04-06T05:35:31;13.93;;;6.60;;
54823;SDS011;40724;53.196;5.980;2023-04-06T05:37:58;11.35;;;7.20;;
54823;SDS011;40724;53.196;5.980;2023-04-06T05:40:24;11.32;;;7.22;;
54823;SDS011;40724;53.196;5.980;2023-04-06T05:42:50;9.15;;;7.38;;
54823;SDS011;40724;53.196;5.980;2023-04-06T05:45:16;11.05;;;7.18;;
54823;SDS011;40724;53.196;5.980;2023-04-06T05:47:43;11.45;;;7.88;;
54823;SDS011;40724;53.196;5.980;2023-04-06T05:50:11;8.88;;;6.00;;
54823;SDS011;40724;53.196;5.980;2023-04-06T05:52:37;9.35;;;7.05;;
54823;SDS011;40724;53.196;5.980;2023-04-06T05:55:03;14.90;;;7.72;;
54823;SDS011;40724;53.196;5.980;2023-04-06T05:57:30;10.35;;;7.43;;
54823;SDS011;40724;53.196;5.980;2023-04-06T05:59:56;11.20;;;6.82;;
54823;SDS011;40724;53.196;5.980;2023-04-06T06:02:22;9.32;;;6.93;;
54823;SDS011;40724;53.196;5.980;2023-04-06T06:04:48;14.18;;;8.50;;
54823;SDS011;40724;53.196;5.980;2023-04-06T06:07:15;12.98;;;7.72;;
54823;SDS011;40724;53.196;5.980;2023-04-06T06:09:41;16.00;;;7.55;;
54823;SDS011;40724;53.196;5.980;2023-04-06T06:12:07;10.68;;;7.22;;
54823;SDS011;40724;53.196;5.980;2023-04-06T06:14:33;11.82;;;7.03;;
54823;SDS011;40724;53.196;5.980;2023-04-06T06:16:59;12.35;;;8.57;;
54823;SDS011;40724;53.196;5.980;2023-04-06T06:19:26;11.80;;;7.00;;
54823;SDS011;40724;53.196;5.980;2023-04-06T06:21:52;11.60;;;8.30;;
54823;SDS011;40724;53.196;5.980;2023-04-06T06:24:18;13.50;;;8.07;;
54823;SDS011;40724;53.196;5.980;2023-04-06T06:26:44;10.00;;;8.10;;
54823;SDS011;40724;53.196;5.980;2023-04-06T06:29:10;12.32;;;7.85;;
54823;SDS011;40724;53.196;5.980;2023-04-06T06:31:37;12.40;;;7.03;;
54823;SDS011;40724;53.196;5.980;2023-04-06T06:34:03;14.63;;;8.02;;
54823;SDS011;40724;53.196;5.980;2023-04-06T06:36:29;10.15;;;6.63;;
54823;SDS011;40724;53.196;5.980;2023-04-06T06:38:56;12.30;;;7.75;;
54823;SDS011;40724;53.196;5.980;2023-04-06T06:41:24;13.20;;;8.65;;
54823;SDS011;40724;53.196;5.980;2023-04-06T06:43:51;12.35;;;7.97;;
54823;SDS011;40724;53.196;5.980;2023-04-06T06:46:17;10.65;;;7.15;;
54823;SDS011;40724;53.196;5.980;2023-04-06T06:48:43;10.90;;;8.23;;
54823;SDS011;40724;53.196;5.980;2023-04-06T06:51:09;14.07;;;8.00;;
54823;SDS011;40724;53.196;5.980;2023-04-06T06:53:36;12.52;;;8.07;;
54823;SDS011;40724;53.196;5.980;2023-04-06T06:56:03;15.70;;;8.60;;
54823;SDS011;40724;53.196;5.980;2023-04-06T06:58:29;10.52;;;7.47;;
54823;SDS011;40724;53.196;5.980;2023-04-06T07:00:56;12.20;;;8.00;;
54823;SDS011;40724;53.196;5.980;2023-04-06T07:03:22;13.20;;;7.45;;
54823;SDS011;40724;53.196;5.980;2023-04-06T07:05:49;10.52;;;8.10;;
54823;SDS011;40724;53.196;5.980;2023-04-06T07:08:21;9.88;;;7.55;;
54823;SDS011;40724;53.196;5.980;2023-04-06T07:10:48;13.77;;;7.93;;
54823;SDS011;40724;53.196;5.980;2023-04-06T07:13:15;15.10;;;8.20;;
54823;SDS011;40724;53.196;5.980;2023-04-06T07:15:46;17.63;;;8.13;;
54823;SDS011;40724;53.196;5.980;2023-04-06T07:18:13;9.02;;;6.50;;
54823;SDS011;40724;53.196;5.980;2023-04-06T07:20:39;10.48;;;7.35;;
54823;SDS011;40724;53.196;5.980;2023-04-06T07:23:05;17.20;;;7.18;;
54823;SDS011;40724;53.196;5.980;2023-04-06T07:25:32;15.25;;;9.02;;
54823;SDS011;40724;53.196;5.980;2023-04-06T07:27:58;10.10;;;7.53;;
54823;SDS011;40724;53.196;5.980;2023-04-06T07:30:24;13.60;;;7.85;;
54823;SDS011;40724;53.196;5.980;2023-04-06T07:32:54;14.25;;;7.20;;
54823;SDS011;40724;53.196;5.980;2023-04-06T07:35:21;11.30;;;7.25;;
54823;SDS011;40724;53.196;5.980;2023-04-06T07:37:48;11.27;;;8.23;;
54823;SDS011;40724;53.196;5.980;2023-04-06T07:40:14;13.23;;;7.93;;
54823;SDS011;40724;53.196;5.980;2023-04-06T07:42:40;13.70;;;7.20;;
54823;SDS011;40724;53.196;5.980;2023-04-06T07:45:06;9.80;;;7.50;;
54823;SDS011;40724;53.196;5.980;2023-04-06T07:47:33;17.02;;;8.70;;
54823;SDS011;40724;53.196;5.980;2023-04-06T07:49:59;12.15;;;7.30;;
54823;SDS011;40724;53.196;5.980;2023-04-06T07:52:25;11.63;;;7.90;;
54823;SDS011;40724;53.196;5.980;2023-04-06T07:54:51;11.23;;;7.55;;
54823;SDS011;40724;53.196;5.980;2023-04-06T07:57:17;15.68;;;8.32;;
54823;SDS011;40724;53.196;5.980;2023-04-06T07:59:44;17.15;;;7.97;;
54823;SDS011;40724;53.196;5.980;2023-04-06T08:02:10;12.40;;;8.15;;
54823;SDS011;40724;53.196;5.980;2023-04-06T08:04:36;9.70;;;7.05;;
54823;SDS011;40724;53.196;5.980;2023-04-06T08:07:02;10.60;;;7.10;;
54823;SDS011;40724;53.196;5.980;2023-04-06T08:09:28;15.05;;;8.60;;
54823;SDS011;40724;53.196;5.980;2023-04-06T08:11:55;11.07;;;7.35;;
54823;SDS011;40724;53.196;5.980;2023-04-06T08:14:21;11.00;;;8.30;;
54823;SDS011;40724;53.196;5.980;2023-04-06T08:16:47;9.63;;;6.93;;
54823;SDS011;40724;53.196;5.980;2023-04-06T08:19:13;10.35;;;7.57;;
54823;SDS011;40724;53.196;5.980;2023-04-06T08:21:42;12.90;;;8.40;;
54823;SDS011;40724;53.196;5.980;2023-04-06T08:24:08;13.88;;;8.77;;
54823;SDS011;40724;53.196;5.980;2023-04-06T08:26:35;12.73;;;8.18;;
54823;SDS011;40724;53.196;5.980;2023-04-06T08:29:01;11.88;;;7.90;;
54823;SDS011;40724;53.196;5.980;2023-04-06T08:31:29;14.52;;;9.02;;
54823;SDS011;40724;53.196;5.980;2023-04-06T08:33:55;15.15;;;8.63;;
54823;SDS011;40724;53.196;5.980;2023-04-06T08:36:21;13.40;;;8.23;;
54823;SDS011;40724;53.196;5.980;2023-04-06T08:38:48;14.02;;;8.07;;
54823;SDS011;40724;53.196;5.980;2023-04-06T08:41:15;11.73;;;8.32;;
54823;SDS011;40724;53.196;5.980;2023-04-06T08:43:43;12.23;;;8.85;;
54823;SDS011;40724;53.196;5.980;2023-04-06T08:46:10;14.40;;;8.73;;
54823;SDS011;40724;53.196;5.980;2023-04-06T08:48:38;14.25;;;7.95;;
54823;SDS011;40724;53.196;5.980;2023-04-06T08:51:05;13.52;;;8.68;;
54823;SDS011;40724;53.196;5.980;2023-04-06T08:53:31;16.25;;;9.95;;
54823;SDS011;40724;53.196;5.980;2023-04-06T08:55:57;17.55;;;10.63;;
54823;SDS011;40724;53.196;5.980;2023-04-06T08:58:24;16.20;;;9.80;;
54823;SDS011;40724;53.196;5.980;2023-04-06T09:00:50;15.27;;;10.40;;
54823;SDS011;40724;53.196;5.980;2023-04-06T09:03:17;13.52;;;9.50;;
54823;SDS011;40724;53.196;5.980;2023-04-06T09:05:44;17.88;;;10.75;;
54823;SDS011;40724;53.196;5.980;2023-04-06T09:08:11;12.80;;;9.23;;
54823;SDS011;40724;53.196;5.980;2023-04-06T09:10:40;16.13;;;10.15;;
54823;SDS011;40724;53.196;5.980;2023-04-06T09:13:07;17.33;;;10.57;;
54823;SDS011;40724;53.196;5.980;2023-04-06T09:15:33;16.70;;;10.15;;
54823;SDS011;40724;53.196;5.980;2023-04-06T09:17:59;19.00;;;10.82;;
54823;SDS011;40724;53.196;5.980;2023-04-06T09:20:26;19.83;;;11.55;;
54823;SDS011;40724;53.196;5.980;2023-04-06T09:22:53;16.08;;;10.40;;
54823;SDS011;40724;53.196;5.980;2023-04-06T09:25:23;17.23;;;10.73;;
54823;SDS011;40724;53.196;5.980;2023-04-06T09:28:00;14.25;;;10.32;;
54823;SDS011;40724;53.196;5.980;2023-04-06T09:30:26;20.65;;;12.23;;
54823;SDS011;40724;53.196;5.980;2023-04-06T09:32:53;15.60;;;10.60;;
54823;SDS011;40724;53.196;5.980;2023-04-06T09:35:19;17.10;;;11.68;;
54823;SDS011;40724;53.196;5.980;2023-04-06T09:37:47;16.88;;;10.75;;
54823;SDS011;40724;53.196;5.980;2023-04-06T09:40:13;16.67;;;12.15;;
54823;SDS011;40724;53.196;5.980;2023-04-06T09:42:41;18.00;;;11.68;;
54823;SDS011;40724;53.196;5.980;2023-04-06T09:45:07;21.80;;;11.70;;
54823;SDS011;40724;53.196;5.980;2023-04-06T09:47:35;18.58;;;11.85;;
54823;SDS011;40724;53.196;5.980;2023-04-06T09:50:02;15.80;;;11.00;;
54823;SDS011;40724;53.196;5.980;2023-04-06T09:52:32;18.58;;;12.40;;
54823;SDS011;40724;53.196;5.980;2023-04-06T09:54:59;18.50;;;12.20;;
54823;SDS011;40724;53.196;5.980;2023-04-06T10:00:04;18.42;;;11.75;;
54823;SDS011;40724;53.196;5.980;2023-04-06T10:02:39;17.55;;;11.65;;
54823;SDS011;40724;53.196;5.980;2023-04-06T10:05:12;19.08;;;12.90;;
54823;SDS011;40724;53.196;5.980;2023-04-06T10:07:42;14.60;;;10.85;;
54823;SDS011;40724;53.196;5.980;2023-04-06T10:10:08;17.63;;;12.02;;
54823;SDS011;40724;53.196;5.980;2023-04-06T10:12:36;21.30;;;11.50;;
54823;SDS011;40724;53.196;5.980;2023-04-06T10:15:03;16.48;;;12.32;;
54823;SDS011;40724;53.196;5.980;2023-04-06T10:17:29;16.83;;;11.80;;
54823;SDS011;40724;53.196;5.980;2023-04-06T10:25:07;19.42;;;13.10;;
54823;SDS011;40724;53.196;5.980;2023-04-06T10:27:34;19.35;;;12.52;;
54823;SDS011;40724;53.196;5.980;2023-04-06T10:30:01;17.80;;;12.57;;
54823;SDS011;40724;53.196;5.980;2023-04-06T10:32:34;19.58;;;12.60;;
54823;SDS011;40724;53.196;5.980;2023-04-06T10:35:19;25.52;;;13.93;;
54823;SDS011;40724;53.196;5.980;2023-04-06T10:38:07;17.50;;;12.82;;
54823;SDS011;40724;53.196;5.980;2023-04-06T10:40:35;19.00;;;14.13;;
54823;SDS011;40724;53.196;5.980;2023-04-06T10:43:18;18.90;;;13.60;;
54823;SDS011;40724;53.196;5.980;2023-04-06T10:48:14;17.65;;;12.88;;
54823;SDS011;40724;53.196;5.980;2023-04-06T10:50:44;25.63;;;14.68;;
54823;SDS011;40724;53.196;5.980;2023-04-06T10:53:10;22.67;;;13.73;;
54823;SDS011;40724;53.196;5.980;2023-04-06T10:55:38;22.88;;;13.60;;
54823;SDS011;40724;53.196;5.980;2023-04-06T10:58:06;19.33;;;13.73;;
54823;SDS011;40724;53.196;5.980;2023-04-06T11:00:33;22.30;;;13.55;;
54823;SDS011;40724;53.196;5.980;2023-04-06T11:02:59;21.70;;;14.88;;
54823;SDS011;40724;53.196;5.980;2023-04-06T11:05:26;23.02;;;14.32;;
54823;SDS011;40724;53.196;5.980;2023-04-06T11:07:53;28.30;;;14.23;;
54823;SDS011;40724;53.196;5.980;2023-04-06T11:10:22;22.05;;;14.93;;
54823;SDS011;40724;53.196;5.980;2023-04-06T11:12:52;21.30;;;14.07;;
54823;SDS011;40724;53.196;5.980;2023-04-06T11:15:19;23.67;;;15.38;;
54823;SDS011;40724;53.196;5.980;2023-04-06T11:17:45;24.45;;;14.02;;
54823;SDS011;40724;53.196;5.980;2023-04-06T11:20:11;21.13;;;13.98;;
54823;SDS011;40724;53.196;5.980;2023-04-06T11:22:50;23.90;;;14.75;;
54823;SDS011;40724;53.196;5.980;2023-04-06T11:25:17;24.70;;;16.42;;
54823;SDS011;40724;53.196;5.980;2023-04-06T11:27:43;25.38;;;15.30;;
54823;SDS011;40724;53.196;5.980;2023-04-06T11:30:11;23.88;;;16.73;;
54823;SDS011;40724;53.196;5.980;2023-04-06T11:32:41;24.90;;;16.27;;
54823;SDS011;40724;53.196;5.980;2023-04-06T11:35:24;22.58;;;14.90;;
54823;SDS011;40724;53.196;5.980;2023-04-06T11:37:50;22.52;;;15.63;;
54823;SDS011;40724;53.196;5.980;2023-04-06T11:40:25;24.65;;;15.27;;
54823;SDS011;40724;53.196;5.980;2023-04-06T11:42:56;24.45;;;15.35;;
54823;SDS011;40724;53.196;5.980;2023-04-06T11:45:22;25.92;;;14.95;;
54823;SDS011;40724;53.196;5.980;2023-04-06T11:47:57;25.40;;;16.05;;
54823;SDS011;40724;53.196;5.980;2023-04-06T11:50:25;22.38;;;15.32;;
54823;SDS011;40724;53.196;5.980;2023-04-06T11:52:59;26.95;;;17.13;;
54823;SDS011;40724;53.196;5.980;2023-04-06T11:55:26;25.00;;;16.02;;
54823;SDS011;40724;53.196;5.980;2023-04-06T11:57:52;19.63;;;15.43;;
54823;SDS011;40724;53.196;5.980;2023-04-06T12:00:20;22.35;;;14.98;;
54823;SDS011;40724;53.196;5.980;2023-04-06T12:02:46;22.13;;;14.80;;
54823;SDS011;40724;53.196;5.980;2023-04-06T12:05:13;28.48;;;15.13;;
54823;SDS011;40724;53.196;5.980;2023-04-06T12:07:40;22.52;;;15.02;;
54823;SDS011;40724;53.196;5.980;2023-04-06T12:10:06;23.85;;;15.10;;
54823;SDS011;40724;53.196;5.980;2023-04-06T12:12:32;23.23;;;16.15;;
54823;SDS011;40724;53.196;5.980;2023-04-06T12:14:58;23.65;;;15.10;;
54823;SDS011;40724;53.196;5.980;2023-04-06T12:17:25;20.92;;;13.82;;
54823;SDS011;40724;53.196;5.980;2023-04-06T12:19:51;21.88;;;14.93;;
54823;SDS011;40724;53.196;5.980;2023-04-06T12:22:17;21.98;;;15.90;;
54823;SDS011;40724;53.196;5.980;2023-04-06T12:24:43;22.02;;;15.00;;
54823;SDS011;40724;53.196;5.980;2023-04-06T12:27:09;26.33;;;15.18;;
54823;SDS011;40724;53.196;5.980;2023-04-06T12:29:37;18.83;;;14.43;;
54823;SDS011;40724;53.196;5.980;2023-04-06T12:32:03;19.50;;;12.65;;
54823;SDS011;40724;53.196;5.980;2023-04-06T12:34:30;18.70;;;12.75;;
54823;SDS011;40724;53.196;5.980;2023-04-06T12:36:56;19.65;;;13.95;;
54823;SDS011;40724;53.196;5.980;2023-04-06T12:39:22;22.65;;;14.55;;
54823;SDS011;40724;53.196;5.980;2023-04-06T12:41:49;20.70;;;12.93;;
54823;SDS011;40724;53.196;5.980;2023-04-06T12:44:15;25.40;;;14.70;;
54823;SDS011;40724;53.196;5.980;2023-04-06T12:46:41;20.95;;;13.63;;
54823;SDS011;40724;53.196;5.980;2023-04-06T12:49:08;20.60;;;13.80;;
54823;SDS011;40724;53.196;5.980;2023-04-06T12:51:35;20.02;;;13.25;;
54823;SDS011;40724;53.196;5.980;2023-04-06T12:54:01;19.65;;;12.70;;
54823;SDS011;40724;53.196;5.980;2023-04-06T12:56:27;16.98;;;12.15;;
54823;SDS011;40724;53.196;5.980;2023-04-06T12:58:53;17.52;;;12.50;;
54823;SDS011;40724;53.196;5.980;2023-04-06T13:01:19;17.98;;;11.57;;
54823;SDS011;40724;53.196;5.980;2023-04-06T13:03:46;13.68;;;9.35;;
54823;SDS011;40724;53.196;5.980;2023-04-06T13:06:12;14.27;;;9.52;;
54823;SDS011;40724;53.196;5.980;2023-04-06T13:08:39;11.98;;;8.40;;
54823;SDS011;40724;53.196;5.980;2023-04-06T13:11:06;15.80;;;10.77;;
54823;SDS011;40724;53.196;5.980;2023-04-06T13:13:35;16.92;;;11.15;;
54823;SDS011;40724;53.196;5.980;2023-04-06T13:16:02;15.70;;;9.48;;
54823;SDS011;40724;53.196;5.980;2023-04-06T13:18:30;13.85;;;10.45;;
54823;SDS011;40724;53.196;5.980;2023-04-06T13:20:57;18.48;;;10.48;;
54823;SDS011;40724;53.196;5.980;2023-04-06T13:23:24;17.52;;;10.95;;
54823;SDS011;40724;53.196;5.980;2023-04-06T13:26:24;17.17;;;10.30;;
54823;SDS011;40724;53.196;5.980;2023-04-06T13:28:43;15.70;;;10.43;;
54823;SDS011;40724;53.196;5.980;2023-04-06T13:31:09;17.48;;;10.30;;
54823;SDS011;40724;53.196;5.980;2023-04-06T13:33:35;18.48;;;9.38;;
54823;SDS011;40724;53.196;5.980;2023-04-06T13:36:02;14.45;;;10.10;;
54823;SDS011;40724;53.196;5.980;2023-04-06T13:38:29;14.35;;;10.32;;
54823;SDS011;40724;53.196;5.980;2023-04-06T13:40:55;16.77;;;9.98;;
54823;SDS011;40724;53.196;5.980;2023-04-06T13:43:21;16.20;;;10.77;;
54823;SDS011;40724;53.196;5.980;2023-04-06T13:45:51;17.08;;;10.77;;
54823;SDS011;40724;53.196;5.980;2023-04-06T13:48:17;17.50;;;11.43;;
54823;SDS011;40724;53.196;5.980;2023-04-06T13:50:43;18.40;;;11.88;;
54823;SDS011;40724;53.196;5.980;2023-04-06T13:53:10;17.92;;;11.18;;
54823;SDS011;40724;53.196;5.980;2023-04-06T13:55:37;15.50;;;11.43;;
54823;SDS011;40724;53.196;5.980;2023-04-06T13:58:03;17.75;;;11.75;;
54823;SDS011;40724;53.196;5.980;2023-04-06T14:00:29;18.05;;;13.18;;
54823;SDS011;40724;53.196;5.980;2023-04-06T14:02:55;19.05;;;12.75;;
54823;SDS011;40724;53.196;5.980;2023-04-06T14:05:22;18.75;;;12.77;;
54823;SDS011;40724;53.196;5.980;2023-04-06T14:07:49;19.38;;;12.82;;
54823;SDS011;40724;53.196;5.980;2023-04-06T14:10:15;19.50;;;12.25;;
54823;SDS011;40724;53.196;5.980;2023-04-06T14:12:42;18.15;;;12.63;;
54823;SDS011;40724;53.196;5.980;2023-04-06T14:15:10;20.70;;;13.20;;
54823;SDS011;40724;53.196;5.980;2023-04-06T14:17:36;22.40;;;13.68;;
54823;SDS011;40724;53.196;5.980;2023-04-06T14:20:03;15.82;;;12.10;;
54823;SDS011;40724;53.196;5.980;2023-04-06T14:22:30;18.10;;;12.82;;
54823;SDS011;40724;53.196;5.980;2023-04-06T14:24:56;18.13;;;12.75;;
54823;SDS011;40724;53.196;5.980;2023-04-06T14:27:22;20.70;;;14.00;;
54823;SDS011;40724;53.196;5.980;2023-04-06T14:29:49;16.38;;;12.00;;
54823;SDS011;40724;53.196;5.980;2023-04-06T14:32:16;21.20;;;15.02;;
54823;SDS011;40724;53.196;5.980;2023-04-06T14:34:42;18.20;;;13.30;;
54823;SDS011;40724;53.196;5.980;2023-04-06T14:37:08;20.67;;;14.20;;
54823;SDS011;40724;53.196;5.980;2023-04-06T14:39:34;21.45;;;13.30;;
54823;SDS011;40724;53.196;5.980;2023-04-06T14:42:00;20.98;;;12.95;;